• Join FlightAware (Why Join?)
  • Login
  • US Flag 
11:25AM EST


 

Airport Tracker/Info


-or-


 

Live Flight TrackerFlight Track Log ✈ EGF3994 ✈ 07-Jun-2013 ✈ KORD - KDAY

Flight Track Log - Related Links

Times and Time Zones

All times are in EDT time to prevent confusion due to time zone crossing. See the EGF3994 flight status page for this flight to view local times or setup timezone preferences in your user account.

Time Position Orientation Groundspeed Altitude Reporting Facility
EDT Latitude Longitude Course Direction KTS MPH feet Rate Location/Type
06:41PM 42.0000 -87.8500 90° East 175 201 2,300  Level Chicago TRACON
06:42PM 41.9772 -87.7994 121° Southeast 193 222 3,700 1,487 Climbing Chicago Center
06:43PM 41.9614 -87.4805 98° East  Level FlightAware Approximate
06:43PM 41.9542 -87.7136 110° East 214 246 5,100  Level Chicago Center
06:44PM 41.9482 -87.3416 95° East  Level FlightAware Approximate
06:44PM 41.9481 -87.6125 95° East 258 297 7,100  Level Chicago Center
06:45PM 41.9383 -87.2023 95° East  Level FlightAware Approximate
06:45PM 41.9725 -87.5169 71° East 282 325 9,200  Level Chicago Center
06:46PM 41.9333 -87.0785 90° East  Level FlightAware Approximate
06:46PM 41.9894 -87.4156 77° East 291 335 11,300  Level Chicago Center
06:47PM 41.9711 -87.2772 100° East 309 356 13,600 1,790 Climbing Chicago Center
06:48PM 41.9567 -87.1558 99° East 324 373 15,000 774 Climbing Chicago Center
06:49PM 41.9422 -87.0300 99° East 337 388 15,200 484 Climbing Chicago Center
06:50PM 41.9472 -86.9006 87° East 346 398 16,000 871 Climbing Chicago Center
06:51PM 41.9353 -86.7736 97° East 346 398 17,000 968 Climbing Chicago Center
06:52PM 41.9158 -86.6333 101° East 354 407 18,000 1,258 Climbing Chicago Center
06:53PM 41.8967 -86.5033 101° East 357 411 19,600 1,488 Climbing Chicago Center
06:54PM 41.8753 -86.3664 102° East 372 428 21,100 1,440 Climbing Chicago Center
06:55PM 41.8061 -86.2328 125° Southeast 370 426 22,600 919 Climbing Chicago Center
06:56PM 41.7306 -86.1242 133° Southeast 395 455 23,000 194 Climbing Chicago Center
06:57PM 41.6564 -86.0133 132° Southeast 402 463 23,000  Level Chicago Center
06:58PM 41.5764 -85.8950 132° Southeast 428 493 23,000 -435 Level Chicago Center
06:59PM 41.4953 -85.7739 132° Southeast 441 507 22,100 -968 Descending Chicago Center
07:00PM 41.3969 -85.6283 132° Southeast 446 513 21,000 -919 Descending Chicago Center
07:01PM 41.3192 -85.5119 132° Southeast 430 495 20,200 -864 Descending Chicago Center
07:02PM 41.2403 -85.3983 133° Southeast 425 489 19,200 -960 Descending Chicago Center
07:03PM 41.1611 -85.2831 132° Southeast 425 489 18,200 -919 Descending Chicago Center
07:04PM 41.0817 -85.1686 133° Southeast 429 494 17,300 -1,065 Descending Chicago Center
07:05PM 40.9906 -85.0361 132° Southeast 413 475 16,000 -1,065 Descending Chicago Center
07:06PM 40.9158 -84.9300 133° Southeast 401 461 15,100 -435 Descending Chicago Center
07:07PM 40.8400 -84.8222 133° Southeast 400 460 15,100  Level Chicago Center
07:08PM 40.7642 -84.7128 132° Southeast 404 465 15,100 -55 Level Chicago Center
07:09PM 40.7006 -84.6219 133° Southeast 402 463 15,000 -545 Descending Indianapolis Center
07:10PM 40.6236 -84.5147 133° Southeast 400 460 14,100 -1,097 Descending Indianapolis Center
07:11PM 40.5778 -84.4514 134° Southeast 393 452 13,300 -1,258 Descending Indianapolis Center
07:11PM 40.5489 -84.4083 131° Southeast 394 453 12,800 -1,161 Descending Indianapolis Center
07:12PM 40.4653 -84.3422 149° Southeast 359 413 11,500 -850 Descending Indianapolis Center
07:13PM 40.3561 -84.3689 191° South 320 368 11,000 -732 Descending Indianapolis Center
07:14PM 40.2719 -84.3900 191° South 324 373 10,000 -1,400 Descending Indianapolis Center
07:15PM 40.1950 -84.4089 191° South 290 334 8,200 -1,839 Descending Indianapolis Center
07:17PM 40.1119 -84.4339 193° South 279 321 6,200 -1,073 Descending Indianapolis Center
07:18PM 40.0369 -84.4536 191° South 279 321 6,000 -689 Descending Indianapolis Center
07:19PM 39.9619 -84.4733 191° South 271 312 4,800 -1,041 Descending Indianapolis Center
07:20PM 39.8839 -84.4792 183° South 271 312 3,900 -744 Descending Indianapolis Center
07:21PM 39.8217 -84.4461 158° South 236 272 3,300 -590 Descending Indianapolis Center